sensor_id;sensor_type;location;lat;lon;timestamp;P1;durP1;ratioP1;P2;durP2;ratioP2
8293;SDS011;4185;41.506;24.938;2023-04-06T00:00:07;7.83;;;6.27;;
8293;SDS011;4185;41.506;24.938;2023-04-06T00:02:36;10.30;;;6.30;;
8293;SDS011;4185;41.506;24.938;2023-04-06T00:05:03;10.77;;;6.60;;
8293;SDS011;4185;41.506;24.938;2023-04-06T00:07:30;9.40;;;6.10;;
8293;SDS011;4185;41.506;24.938;2023-04-06T00:09:58;7.47;;;5.90;;
8293;SDS011;4185;41.506;24.938;2023-04-06T00:12:25;11.30;;;6.00;;
8293;SDS011;4185;41.506;24.938;2023-04-06T00:14:53;6.70;;;5.37;;
8293;SDS011;4185;41.506;24.938;2023-04-06T00:17:20;7.27;;;6.03;;
8293;SDS011;4185;41.506;24.938;2023-04-06T00:19:47;7.87;;;6.10;;
8293;SDS011;4185;41.506;24.938;2023-04-06T00:22:14;8.00;;;5.37;;
8293;SDS011;4185;41.506;24.938;2023-04-06T00:24:40;6.87;;;4.90;;
8293;SDS011;4185;41.506;24.938;2023-04-06T00:27:07;7.33;;;5.27;;
8293;SDS011;4185;41.506;24.938;2023-04-06T00:29:34;5.67;;;5.03;;
8293;SDS011;4185;41.506;24.938;2023-04-06T00:32:03;8.33;;;5.67;;
8293;SDS011;4185;41.506;24.938;2023-04-06T00:34:30;7.13;;;5.80;;
8293;SDS011;4185;41.506;24.938;2023-04-06T00:36:57;7.00;;;5.40;;
8293;SDS011;4185;41.506;24.938;2023-04-06T00:39:24;8.73;;;6.00;;
8293;SDS011;4185;41.506;24.938;2023-04-06T00:41:51;8.33;;;6.17;;
8293;SDS011;4185;41.506;24.938;2023-04-06T00:44:18;7.10;;;5.70;;
8293;SDS011;4185;41.506;24.938;2023-04-06T00:46:45;8.00;;;5.50;;
8293;SDS011;4185;41.506;24.938;2023-04-06T00:49:14;8.10;;;5.73;;
8293;SDS011;4185;41.506;24.938;2023-04-06T00:51:40;7.83;;;5.97;;
8293;SDS011;4185;41.506;24.938;2023-04-06T00:54:07;7.87;;;5.27;;
8293;SDS011;4185;41.506;24.938;2023-04-06T00:56:34;7.37;;;5.13;;
8293;SDS011;4185;41.506;24.938;2023-04-06T00:59:01;8.60;;;5.57;;
8293;SDS011;4185;41.506;24.938;2023-04-06T01:01:28;7.37;;;5.70;;
8293;SDS011;4185;41.506;24.938;2023-04-06T01:03:57;7.97;;;6.23;;
8293;SDS011;4185;41.506;24.938;2023-04-06T01:06:26;6.13;;;5.20;;
8293;SDS011;4185;41.506;24.938;2023-04-06T01:08:52;8.27;;;5.17;;
8293;SDS011;4185;41.506;24.938;2023-04-06T01:11:19;8.17;;;5.60;;
8293;SDS011;4185;41.506;24.938;2023-04-06T01:13:46;9.43;;;5.67;;
8293;SDS011;4185;41.506;24.938;2023-04-06T01:16:13;7.97;;;5.43;;
8293;SDS011;4185;41.506;24.938;2023-04-06T01:18:40;8.63;;;5.60;;
8293;SDS011;4185;41.506;24.938;2023-04-06T01:21:07;8.90;;;5.27;;
8293;SDS011;4185;41.506;24.938;2023-04-06T01:23:41;6.33;;;4.93;;
8293;SDS011;4185;41.506;24.938;2023-04-06T01:26:09;7.63;;;5.23;;
8293;SDS011;4185;41.506;24.938;2023-04-06T01:28:36;8.77;;;5.00;;
8293;SDS011;4185;41.506;24.938;2023-04-06T01:31:03;6.00;;;5.00;;
8293;SDS011;4185;41.506;24.938;2023-04-06T01:33:31;6.03;;;4.67;;
8293;SDS011;4185;41.506;24.938;2023-04-06T01:35:57;6.03;;;4.80;;
8293;SDS011;4185;41.506;24.938;2023-04-06T01:38:24;7.10;;;5.47;;
8293;SDS011;4185;41.506;24.938;2023-04-06T01:40:53;7.83;;;4.90;;
8293;SDS011;4185;41.506;24.938;2023-04-06T01:43:20;6.17;;;5.10;;
8293;SDS011;4185;41.506;24.938;2023-04-06T01:45:47;7.27;;;4.83;;
8293;SDS011;4185;41.506;24.938;2023-04-06T01:48:14;5.20;;;4.40;;
8293;SDS011;4185;41.506;24.938;2023-04-06T01:50:41;4.57;;;4.03;;
8293;SDS011;4185;41.506;24.938;2023-04-06T01:53:07;6.27;;;4.67;;
8293;SDS011;4185;41.506;24.938;2023-04-06T01:55:34;7.87;;;5.13;;
8293;SDS011;4185;41.506;24.938;2023-04-06T01:58:03;6.17;;;4.37;;
8293;SDS011;4185;41.506;24.938;2023-04-06T02:00:30;6.50;;;5.03;;
8293;SDS011;4185;41.506;24.938;2023-04-06T02:02:56;6.33;;;5.20;;
8293;SDS011;4185;41.506;24.938;2023-04-06T02:05:23;7.83;;;5.53;;
8293;SDS011;4185;41.506;24.938;2023-04-06T02:07:51;8.93;;;5.53;;
8293;SDS011;4185;41.506;24.938;2023-04-06T02:10:18;6.80;;;5.33;;
8293;SDS011;4185;41.506;24.938;2023-04-06T02:12:44;8.70;;;5.70;;
8293;SDS011;4185;41.506;24.938;2023-04-06T02:15:13;11.60;;;6.27;;
8293;SDS011;4185;41.506;24.938;2023-04-06T02:17:40;13.17;;;6.27;;
8293;SDS011;4185;41.506;24.938;2023-04-06T02:20:07;8.57;;;6.13;;
8293;SDS011;4185;41.506;24.938;2023-04-06T02:22:35;9.07;;;6.20;;
8293;SDS011;4185;41.506;24.938;2023-04-06T02:25:03;9.07;;;6.23;;
8293;SDS011;4185;41.506;24.938;2023-04-06T02:27:30;7.77;;;5.97;;
8293;SDS011;4185;41.506;24.938;2023-04-06T02:29:57;8.90;;;5.80;;
8293;SDS011;4185;41.506;24.938;2023-04-06T02:32:25;9.80;;;7.13;;
8293;SDS011;4185;41.506;24.938;2023-04-06T02:34:52;17.00;;;10.77;;
8293;SDS011;4185;41.506;24.938;2023-04-06T02:37:19;8.07;;;6.20;;
8293;SDS011;4185;41.506;24.938;2023-04-06T02:39:47;10.70;;;6.43;;
8293;SDS011;4185;41.506;24.938;2023-04-06T02:42:13;7.60;;;4.97;;
8293;SDS011;4185;41.506;24.938;2023-04-06T02:44:41;9.47;;;6.00;;
8293;SDS011;4185;41.506;24.938;2023-04-06T02:47:07;7.87;;;5.60;;
8293;SDS011;4185;41.506;24.938;2023-04-06T02:49:36;6.47;;;5.30;;
8293;SDS011;4185;41.506;24.938;2023-04-06T02:52:03;6.77;;;5.43;;
8293;SDS011;4185;41.506;24.938;2023-04-06T02:54:30;10.80;;;6.40;;
8293;SDS011;4185;41.506;24.938;2023-04-06T02:56:56;9.00;;;6.30;;
8293;SDS011;4185;41.506;24.938;2023-04-06T02:59:23;12.97;;;6.43;;
8293;SDS011;4185;41.506;24.938;2023-04-06T03:01:50;9.00;;;5.77;;
8293;SDS011;4185;41.506;24.938;2023-04-06T03:04:17;12.53;;;7.13;;
8293;SDS011;4185;41.506;24.938;2023-04-06T03:06:45;9.20;;;5.67;;
8293;SDS011;4185;41.506;24.938;2023-04-06T03:09:12;8.57;;;5.53;;
8293;SDS011;4185;41.506;24.938;2023-04-06T03:11:40;7.60;;;5.50;;
8293;SDS011;4185;41.506;24.938;2023-04-06T03:14:06;7.57;;;5.73;;
8293;SDS011;4185;41.506;24.938;2023-04-06T03:16:33;8.63;;;5.97;;
8293;SDS011;4185;41.506;24.938;2023-04-06T03:19:00;6.80;;;5.40;;
8293;SDS011;4185;41.506;24.938;2023-04-06T03:21:27;6.30;;;5.20;;
8293;SDS011;4185;41.506;24.938;2023-04-06T03:23:55;9.80;;;5.87;;
8293;SDS011;4185;41.506;24.938;2023-04-06T03:26:22;7.43;;;5.60;;
8293;SDS011;4185;41.506;24.938;2023-04-06T03:28:49;9.00;;;5.63;;
8293;SDS011;4185;41.506;24.938;2023-04-06T03:31:16;10.07;;;7.03;;
8293;SDS011;4185;41.506;24.938;2023-04-06T03:33:42;10.40;;;6.70;;
8293;SDS011;4185;41.506;24.938;2023-04-06T03:36:09;8.83;;;6.40;;
8293;SDS011;4185;41.506;24.938;2023-04-06T03:38:36;7.60;;;5.77;;
8293;SDS011;4185;41.506;24.938;2023-04-06T03:41:04;7.53;;;6.03;;
8293;SDS011;4185;41.506;24.938;2023-04-06T03:43:31;8.57;;;5.67;;
8293;SDS011;4185;41.506;24.938;2023-04-06T03:45:58;8.90;;;5.30;;
8293;SDS011;4185;41.506;24.938;2023-04-06T03:48:25;6.07;;;4.57;;
8293;SDS011;4185;41.506;24.938;2023-04-06T03:50:51;6.53;;;4.73;;
8293;SDS011;4185;41.506;24.938;2023-04-06T03:53:18;7.90;;;5.43;;
8293;SDS011;4185;41.506;24.938;2023-04-06T03:55:45;11.90;;;8.63;;
8293;SDS011;4185;41.506;24.938;2023-04-06T03:58:14;10.13;;;7.97;;
8293;SDS011;4185;41.506;24.938;2023-04-06T04:00:41;7.67;;;6.07;;
8293;SDS011;4185;41.506;24.938;2023-04-06T04:03:07;9.87;;;6.00;;
8293;SDS011;4185;41.506;24.938;2023-04-06T04:05:34;6.50;;;5.13;;
8293;SDS011;4185;41.506;24.938;2023-04-06T04:08:01;6.30;;;5.60;;
8293;SDS011;4185;41.506;24.938;2023-04-06T04:10:28;7.30;;;5.20;;
8293;SDS011;4185;41.506;24.938;2023-04-06T04:12:55;9.90;;;6.87;;
8293;SDS011;4185;41.506;24.938;2023-04-06T04:15:23;13.47;;;7.50;;
8293;SDS011;4185;41.506;24.938;2023-04-06T04:17:50;11.87;;;7.73;;
8293;SDS011;4185;41.506;24.938;2023-04-06T04:20:16;13.60;;;8.93;;
8293;SDS011;4185;41.506;24.938;2023-04-06T04:22:43;10.83;;;7.33;;
8293;SDS011;4185;41.506;24.938;2023-04-06T04:25:10;12.77;;;7.80;;
8293;SDS011;4185;41.506;24.938;2023-04-06T04:27:37;11.00;;;7.17;;
8293;SDS011;4185;41.506;24.938;2023-04-06T04:30:04;8.67;;;6.40;;
8293;SDS011;4185;41.506;24.938;2023-04-06T04:32:33;10.27;;;6.73;;
8293;SDS011;4185;41.506;24.938;2023-04-06T04:35:00;9.10;;;6.47;;
8293;SDS011;4185;41.506;24.938;2023-04-06T04:37:27;12.63;;;7.87;;
8293;SDS011;4185;41.506;24.938;2023-04-06T04:39:54;10.20;;;6.90;;
8293;SDS011;4185;41.506;24.938;2023-04-06T04:42:21;10.50;;;7.50;;
8293;SDS011;4185;41.506;24.938;2023-04-06T04:44:48;8.33;;;6.00;;
8293;SDS011;4185;41.506;24.938;2023-04-06T04:47:15;10.17;;;7.23;;
8293;SDS011;4185;41.506;24.938;2023-04-06T04:49:43;9.30;;;6.33;;
8293;SDS011;4185;41.506;24.938;2023-04-06T04:52:10;8.87;;;5.67;;
8293;SDS011;4185;41.506;24.938;2023-04-06T04:54:36;7.80;;;5.20;;
8293;SDS011;4185;41.506;24.938;2023-04-06T04:57:05;8.70;;;6.30;;
8293;SDS011;4185;41.506;24.938;2023-04-06T04:59:32;8.53;;;6.13;;
8293;SDS011;4185;41.506;24.938;2023-04-06T05:02:00;10.30;;;6.83;;
8293;SDS011;4185;41.506;24.938;2023-04-06T05:04:26;7.90;;;5.77;;
8293;SDS011;4185;41.506;24.938;2023-04-06T05:07:03;9.37;;;6.03;;
8293;SDS011;4185;41.506;24.938;2023-04-06T05:09:30;8.20;;;5.90;;
8293;SDS011;4185;41.506;24.938;2023-04-06T05:11:57;9.77;;;6.17;;
8293;SDS011;4185;41.506;24.938;2023-04-06T05:14:24;8.73;;;6.03;;
8293;SDS011;4185;41.506;24.938;2023-04-06T05:16:51;10.87;;;6.50;;
8293;SDS011;4185;41.506;24.938;2023-04-06T05:19:19;10.20;;;6.47;;
8293;SDS011;4185;41.506;24.938;2023-04-06T05:21:45;10.17;;;6.73;;
8293;SDS011;4185;41.506;24.938;2023-04-06T05:24:14;9.17;;;6.60;;
8293;SDS011;4185;41.506;24.938;2023-04-06T05:26:41;11.57;;;7.60;;
8293;SDS011;4185;41.506;24.938;2023-04-06T05:29:07;8.60;;;6.10;;
8293;SDS011;4185;41.506;24.938;2023-04-06T05:31:34;7.97;;;6.53;;
8293;SDS011;4185;41.506;24.938;2023-04-06T05:34:01;10.60;;;6.17;;
8293;SDS011;4185;41.506;24.938;2023-04-06T05:36:28;12.93;;;7.87;;
8293;SDS011;4185;41.506;24.938;2023-04-06T05:38:56;10.43;;;6.97;;
8293;SDS011;4185;41.506;24.938;2023-04-06T05:41:24;8.87;;;6.87;;
8293;SDS011;4185;41.506;24.938;2023-04-06T05:43:51;7.63;;;6.27;;
8293;SDS011;4185;41.506;24.938;2023-04-06T05:46:18;13.43;;;9.70;;
8293;SDS011;4185;41.506;24.938;2023-04-06T05:48:45;10.57;;;6.93;;
8293;SDS011;4185;41.506;24.938;2023-04-06T05:51:11;8.97;;;6.47;;
8293;SDS011;4185;41.506;24.938;2023-04-06T05:53:38;11.37;;;6.47;;
8293;SDS011;4185;41.506;24.938;2023-04-06T05:56:05;12.57;;;9.03;;
8293;SDS011;4185;41.506;24.938;2023-04-06T05:58:34;10.00;;;6.33;;
8293;SDS011;4185;41.506;24.938;2023-04-06T06:01:01;7.57;;;5.60;;
8293;SDS011;4185;41.506;24.938;2023-04-06T06:03:29;8.47;;;5.90;;
8293;SDS011;4185;41.506;24.938;2023-04-06T06:05:59;9.07;;;7.33;;
8293;SDS011;4185;41.506;24.938;2023-04-06T06:08:26;8.37;;;5.80;;
8293;SDS011;4185;41.506;24.938;2023-04-06T06:10:53;9.30;;;6.47;;
8293;SDS011;4185;41.506;24.938;2023-04-06T06:13:20;8.37;;;6.43;;
8293;SDS011;4185;41.506;24.938;2023-04-06T06:15:49;9.83;;;6.10;;
8293;SDS011;4185;41.506;24.938;2023-04-06T06:18:16;7.23;;;5.77;;
8293;SDS011;4185;41.506;24.938;2023-04-06T06:20:43;7.17;;;5.73;;
8293;SDS011;4185;41.506;24.938;2023-04-06T06:23:10;9.07;;;6.37;;
8293;SDS011;4185;41.506;24.938;2023-04-06T06:25:37;8.13;;;6.50;;
8293;SDS011;4185;41.506;24.938;2023-04-06T06:28:04;13.40;;;8.67;;
8293;SDS011;4185;41.506;24.938;2023-04-06T06:30:30;9.03;;;6.23;;
8293;SDS011;4185;41.506;24.938;2023-04-06T06:32:59;9.17;;;6.80;;
8293;SDS011;4185;41.506;24.938;2023-04-06T06:35:26;9.60;;;6.23;;
8293;SDS011;4185;41.506;24.938;2023-04-06T06:37:52;9.27;;;7.13;;
8293;SDS011;4185;41.506;24.938;2023-04-06T06:40:19;8.77;;;6.43;;
8293;SDS011;4185;41.506;24.938;2023-04-06T06:42:48;9.13;;;6.87;;
8293;SDS011;4185;41.506;24.938;2023-04-06T06:45:16;10.20;;;7.73;;
8293;SDS011;4185;41.506;24.938;2023-04-06T06:47:43;8.87;;;6.97;;
8293;SDS011;4185;41.506;24.938;2023-04-06T06:50:11;8.77;;;6.70;;
8293;SDS011;4185;41.506;24.938;2023-04-06T06:52:39;13.63;;;9.87;;
8293;SDS011;4185;41.506;24.938;2023-04-06T06:55:06;11.23;;;9.40;;
8293;SDS011;4185;41.506;24.938;2023-04-06T06:57:34;11.17;;;8.20;;
8293;SDS011;4185;41.506;24.938;2023-04-06T07:00:01;9.30;;;7.53;;
8293;SDS011;4185;41.506;24.938;2023-04-06T07:02:28;9.60;;;7.17;;
8293;SDS011;4185;41.506;24.938;2023-04-06T07:04:55;8.53;;;6.87;;
8293;SDS011;4185;41.506;24.938;2023-04-06T07:07:24;10.33;;;7.40;;
8293;SDS011;4185;41.506;24.938;2023-04-06T07:09:51;8.53;;;6.37;;
8293;SDS011;4185;41.506;24.938;2023-04-06T07:12:17;9.90;;;6.93;;
8293;SDS011;4185;41.506;24.938;2023-04-06T07:14:44;9.70;;;7.50;;
8293;SDS011;4185;41.506;24.938;2023-04-06T07:17:11;7.97;;;6.33;;
8293;SDS011;4185;41.506;24.938;2023-04-06T07:19:38;9.03;;;6.77;;
8293;SDS011;4185;41.506;24.938;2023-04-06T07:22:05;10.63;;;6.80;;
8293;SDS011;4185;41.506;24.938;2023-04-06T07:24:34;8.27;;;6.70;;
8293;SDS011;4185;41.506;24.938;2023-04-06T07:27:00;9.83;;;6.47;;
8293;SDS011;4185;41.506;24.938;2023-04-06T07:29:27;9.67;;;6.80;;
8293;SDS011;4185;41.506;24.938;2023-04-06T07:31:54;7.83;;;5.97;;
8293;SDS011;4185;41.506;24.938;2023-04-06T07:34:21;8.70;;;6.70;;
8293;SDS011;4185;41.506;24.938;2023-04-06T07:36:48;8.33;;;6.33;;
8293;SDS011;4185;41.506;24.938;2023-04-06T07:39:17;8.43;;;6.43;;
8293;SDS011;4185;41.506;24.938;2023-04-06T07:41:46;6.60;;;5.50;;
8293;SDS011;4185;41.506;24.938;2023-04-06T07:44:12;7.63;;;6.00;;
8293;SDS011;4185;41.506;24.938;2023-04-06T07:46:40;5.67;;;4.93;;
8293;SDS011;4185;41.506;24.938;2023-04-06T07:49:07;6.53;;;5.70;;
8293;SDS011;4185;41.506;24.938;2023-04-06T07:51:35;7.03;;;5.83;;
8293;SDS011;4185;41.506;24.938;2023-04-06T07:54:02;31.50;;;19.57;;
8293;SDS011;4185;41.506;24.938;2023-04-06T07:56:29;30.43;;;16.90;;
8293;SDS011;4185;41.506;24.938;2023-04-06T07:58:58;38.67;;;22.50;;
8293;SDS011;4185;41.506;24.938;2023-04-06T08:01:24;7.50;;;6.40;;
8293;SDS011;4185;41.506;24.938;2023-04-06T08:03:51;6.07;;;5.30;;
8293;SDS011;4185;41.506;24.938;2023-04-06T08:06:20;6.10;;;5.43;;
8293;SDS011;4185;41.506;24.938;2023-04-06T08:08:47;10.27;;;5.20;;
8293;SDS011;4185;41.506;24.938;2023-04-06T08:11:14;9.63;;;5.83;;
8293;SDS011;4185;41.506;24.938;2023-04-06T08:13:41;7.63;;;5.23;;
8293;SDS011;4185;41.506;24.938;2023-04-06T08:16:09;8.87;;;5.57;;
8293;SDS011;4185;41.506;24.938;2023-04-06T08:18:36;9.27;;;5.93;;
8293;SDS011;4185;41.506;24.938;2023-04-06T08:21:03;6.13;;;5.07;;
8293;SDS011;4185;41.506;24.938;2023-04-06T08:23:29;5.37;;;4.70;;
8293;SDS011;4185;41.506;24.938;2023-04-06T08:25:56;7.40;;;5.43;;
8293;SDS011;4185;41.506;24.938;2023-04-06T08:28:23;5.70;;;4.60;;
8293;SDS011;4185;41.506;24.938;2023-04-06T08:30:50;5.97;;;5.23;;
8293;SDS011;4185;41.506;24.938;2023-04-06T08:33:18;6.63;;;5.37;;
8293;SDS011;4185;41.506;24.938;2023-04-06T08:35:45;7.13;;;5.00;;
8293;SDS011;4185;41.506;24.938;2023-04-06T08:38:12;6.63;;;5.10;;
8293;SDS011;4185;41.506;24.938;2023-04-06T08:40:39;6.90;;;5.93;;
8293;SDS011;4185;41.506;24.938;2023-04-06T08:43:09;6.33;;;4.90;;
8293;SDS011;4185;41.506;24.938;2023-04-06T08:45:40;6.07;;;4.87;;
8293;SDS011;4185;41.506;24.938;2023-04-06T08:48:07;6.97;;;6.13;;
8293;SDS011;4185;41.506;24.938;2023-04-06T08:50:37;6.63;;;5.00;;
8293;SDS011;4185;41.506;24.938;2023-04-06T08:53:05;5.10;;;4.40;;
8293;SDS011;4185;41.506;24.938;2023-04-06T08:55:33;5.23;;;4.30;;
8293;SDS011;4185;41.506;24.938;2023-04-06T08:58:00;4.70;;;3.83;;
8293;SDS011;4185;41.506;24.938;2023-04-06T09:00:28;5.33;;;4.40;;
8293;SDS011;4185;41.506;24.938;2023-04-06T09:02:56;7.40;;;4.40;;
8293;SDS011;4185;41.506;24.938;2023-04-06T09:05:24;4.80;;;4.23;;
8293;SDS011;4185;41.506;24.938;2023-04-06T09:07:53;6.63;;;4.80;;
8293;SDS011;4185;41.506;24.938;2023-04-06T09:10:20;8.10;;;6.00;;
8293;SDS011;4185;41.506;24.938;2023-04-06T09:12:48;7.13;;;5.43;;
8293;SDS011;4185;41.506;24.938;2023-04-06T09:15:19;10.77;;;6.40;;
8293;SDS011;4185;41.506;24.938;2023-04-06T09:17:47;6.93;;;5.37;;
8293;SDS011;4185;41.506;24.938;2023-04-06T09:20:14;7.07;;;5.30;;
8293;SDS011;4185;41.506;24.938;2023-04-06T09:22:42;6.00;;;4.73;;
8293;SDS011;4185;41.506;24.938;2023-04-06T09:25:17;8.53;;;5.87;;
8293;SDS011;4185;41.506;24.938;2023-04-06T09:27:46;6.27;;;5.43;;
8293;SDS011;4185;41.506;24.938;2023-04-06T09:30:13;7.30;;;5.90;;
8293;SDS011;4185;41.506;24.938;2023-04-06T09:32:48;7.07;;;5.70;;
8293;SDS011;4185;41.506;24.938;2023-04-06T09:35:16;6.77;;;5.10;;
8293;SDS011;4185;41.506;24.938;2023-04-06T09:37:45;7.63;;;5.90;;
8293;SDS011;4185;41.506;24.938;2023-04-06T09:40:14;8.97;;;6.83;;
8293;SDS011;4185;41.506;24.938;2023-04-06T09:42:42;8.57;;;6.20;;
8293;SDS011;4185;41.506;24.938;2023-04-06T09:45:11;7.40;;;5.50;;
8293;SDS011;4185;41.506;24.938;2023-04-06T09:47:39;11.43;;;6.50;;
8293;SDS011;4185;41.506;24.938;2023-04-06T09:50:09;8.13;;;5.40;;
8293;SDS011;4185;41.506;24.938;2023-04-06T09:52:39;7.40;;;6.00;;
8293;SDS011;4185;41.506;24.938;2023-04-06T09:55:09;15.43;;;7.97;;
8293;SDS011;4185;41.506;24.938;2023-04-06T09:57:41;8.00;;;6.37;;
8293;SDS011;4185;41.506;24.938;2023-04-06T10:00:15;10.40;;;6.80;;
8293;SDS011;4185;41.506;24.938;2023-04-06T10:02:51;12.10;;;7.73;;
8293;SDS011;4185;41.506;24.938;2023-04-06T10:05:27;11.30;;;7.03;;
8293;SDS011;4185;41.506;24.938;2023-04-06T10:08:01;11.93;;;7.73;;
8293;SDS011;4185;41.506;24.938;2023-04-06T10:10:32;13.90;;;8.37;;
8293;SDS011;4185;41.506;24.938;2023-04-06T10:13:00;9.50;;;6.93;;
8293;SDS011;4185;41.506;24.938;2023-04-06T10:15:28;12.03;;;7.97;;
8293;SDS011;4185;41.506;24.938;2023-04-06T10:17:55;8.73;;;6.80;;
8293;SDS011;4185;41.506;24.938;2023-04-06T10:20:24;9.80;;;6.80;;
8293;SDS011;4185;41.506;24.938;2023-04-06T10:22:56;12.20;;;8.07;;
8293;SDS011;4185;41.506;24.938;2023-04-06T10:25:27;7.70;;;6.33;;
8293;SDS011;4185;41.506;24.938;2023-04-06T10:28:02;8.93;;;6.63;;
8293;SDS011;4185;41.506;24.938;2023-04-06T10:30:32;12.53;;;7.83;;
8293;SDS011;4185;41.506;24.938;2023-04-06T10:32:59;8.93;;;6.43;;
8293;SDS011;4185;41.506;24.938;2023-04-06T10:35:35;9.20;;;6.97;;
8293;SDS011;4185;41.506;24.938;2023-04-06T10:38:04;7.93;;;6.10;;
8293;SDS011;4185;41.506;24.938;2023-04-06T10:40:32;8.23;;;6.43;;
8293;SDS011;4185;41.506;24.938;2023-04-06T10:43:10;9.47;;;7.47;;
8293;SDS011;4185;41.506;24.938;2023-04-06T10:45:38;9.70;;;7.10;;
8293;SDS011;4185;41.506;24.938;2023-04-06T10:48:15;12.83;;;8.30;;
8293;SDS011;4185;41.506;24.938;2023-04-06T10:50:43;11.90;;;7.80;;
8293;SDS011;4185;41.506;24.938;2023-04-06T10:53:11;11.93;;;8.10;;
8293;SDS011;4185;41.506;24.938;2023-04-06T10:55:46;11.47;;;7.83;;
8293;SDS011;4185;41.506;24.938;2023-04-06T10:58:15;9.90;;;7.30;;
8293;SDS011;4185;41.506;24.938;2023-04-06T11:00:43;10.17;;;7.40;;
8293;SDS011;4185;41.506;24.938;2023-04-06T11:03:11;11.43;;;8.67;;
8293;SDS011;4185;41.506;24.938;2023-04-06T11:05:38;11.67;;;9.13;;
8293;SDS011;4185;41.506;24.938;2023-04-06T11:08:05;10.00;;;7.67;;
8293;SDS011;4185;41.506;24.938;2023-04-06T11:10:32;10.20;;;7.23;;
8293;SDS011;4185;41.506;24.938;2023-04-06T11:12:59;8.40;;;7.27;;
8293;SDS011;4185;41.506;24.938;2023-04-06T11:15:27;9.83;;;7.43;;
8293;SDS011;4185;41.506;24.938;2023-04-06T11:18:03;7.90;;;6.40;;
8293;SDS011;4185;41.506;24.938;2023-04-06T11:20:30;9.57;;;7.57;;
8293;SDS011;4185;41.506;24.938;2023-04-06T11:22:57;9.80;;;7.07;;
8293;SDS011;4185;41.506;24.938;2023-04-06T11:25:24;6.83;;;5.93;;
8293;SDS011;4185;41.506;24.938;2023-04-06T11:27:52;8.83;;;7.30;;
8293;SDS011;4185;41.506;24.938;2023-04-06T11:30:20;7.70;;;6.73;;
8293;SDS011;4185;41.506;24.938;2023-04-06T11:32:48;7.80;;;6.57;;
8293;SDS011;4185;41.506;24.938;2023-04-06T11:35:19;8.20;;;6.13;;
8293;SDS011;4185;41.506;24.938;2023-04-06T11:37:46;9.53;;;7.63;;
8293;SDS011;4185;41.506;24.938;2023-04-06T11:40:14;10.50;;;7.33;;
8293;SDS011;4185;41.506;24.938;2023-04-06T11:42:41;12.10;;;7.03;;
8293;SDS011;4185;41.506;24.938;2023-04-06T11:45:10;7.90;;;6.57;;
8293;SDS011;4185;41.506;24.938;2023-04-06T11:47:41;9.67;;;7.47;;
8293;SDS011;4185;41.506;24.938;2023-04-06T11:50:10;9.57;;;7.03;;
8293;SDS011;4185;41.506;24.938;2023-04-06T11:52:38;7.80;;;5.93;;
8293;SDS011;4185;41.506;24.938;2023-04-06T11:55:10;8.63;;;5.83;;
8293;SDS011;4185;41.506;24.938;2023-04-06T11:57:39;7.40;;;5.83;;
8293;SDS011;4185;41.506;24.938;2023-04-06T12:00:06;8.23;;;6.60;;
8293;SDS011;4185;41.506;24.938;2023-04-06T12:02:34;7.17;;;5.43;;
8293;SDS011;4185;41.506;24.938;2023-04-06T12:05:01;6.40;;;5.40;;
8293;SDS011;4185;41.506;24.938;2023-04-06T12:07:29;9.30;;;6.77;;
8293;SDS011;4185;41.506;24.938;2023-04-06T12:09:56;8.97;;;6.03;;
8293;SDS011;4185;41.506;24.938;2023-04-06T12:12:24;8.80;;;6.63;;
8293;SDS011;4185;41.506;24.938;2023-04-06T12:14:51;8.60;;;6.47;;
8293;SDS011;4185;41.506;24.938;2023-04-06T12:17:18;11.87;;;7.57;;
8293;SDS011;4185;41.506;24.938;2023-04-06T12:19:45;19.90;;;13.33;;
8293;SDS011;4185;41.506;24.938;2023-04-06T12:22:12;13.60;;;9.30;;
8293;SDS011;4185;41.506;24.938;2023-04-06T12:24:40;15.83;;;10.80;;
8293;SDS011;4185;41.506;24.938;2023-04-06T12:27:07;16.57;;;12.13;;
8293;SDS011;4185;41.506;24.938;2023-04-06T12:29:36;12.23;;;10.10;;
8293;SDS011;4185;41.506;24.938;2023-04-06T12:32:03;9.37;;;7.00;;
8293;SDS011;4185;41.506;24.938;2023-04-06T12:34:31;12.57;;;8.50;;
8293;SDS011;4185;41.506;24.938;2023-04-06T12:36:58;11.53;;;8.87;;
8293;SDS011;4185;41.506;24.938;2023-04-06T12:39:25;6.97;;;6.00;;
8293;SDS011;4185;41.506;24.938;2023-04-06T12:41:54;6.93;;;6.00;;
8293;SDS011;4185;41.506;24.938;2023-04-06T12:44:22;7.10;;;5.83;;
8293;SDS011;4185;41.506;24.938;2023-04-06T12:46:49;7.13;;;5.90;;
8293;SDS011;4185;41.506;24.938;2023-04-06T12:49:16;9.53;;;6.97;;
8293;SDS011;4185;41.506;24.938;2023-04-06T12:51:44;11.07;;;9.07;;
8293;SDS011;4185;41.506;24.938;2023-04-06T12:54:11;10.77;;;8.30;;
8293;SDS011;4185;41.506;24.938;2023-04-06T12:56:38;9.50;;;7.23;;
8293;SDS011;4185;41.506;24.938;2023-04-06T12:59:06;7.13;;;5.67;;
8293;SDS011;4185;41.506;24.938;2023-04-06T13:01:33;9.80;;;7.33;;
8293;SDS011;4185;41.506;24.938;2023-04-06T13:04:00;10.67;;;7.13;;
8293;SDS011;4185;41.506;24.938;2023-04-06T13:06:27;5.70;;;5.03;;
8293;SDS011;4185;41.506;24.938;2023-04-06T13:08:55;9.10;;;7.17;;
8293;SDS011;4185;41.506;24.938;2023-04-06T13:11:22;12.40;;;7.73;;
8293;SDS011;4185;41.506;24.938;2023-04-06T13:13:49;10.63;;;7.40;;
8293;SDS011;4185;41.506;24.938;2023-04-06T13:16:18;16.07;;;9.70;;
8293;SDS011;4185;41.506;24.938;2023-04-06T13:18:45;17.83;;;11.67;;
8293;SDS011;4185;41.506;24.938;2023-04-06T13:21:13;10.50;;;7.67;;
8293;SDS011;4185;41.506;24.938;2023-04-06T13:23:42;9.67;;;8.07;;
8293;SDS011;4185;41.506;24.938;2023-04-06T13:26:09;12.03;;;8.20;;
8293;SDS011;4185;41.506;24.938;2023-04-06T13:28:36;9.27;;;6.07;;
8293;SDS011;4185;41.506;24.938;2023-04-06T13:31:04;9.37;;;6.37;;
8293;SDS011;4185;41.506;24.938;2023-04-06T13:33:33;11.50;;;8.37;;
8293;SDS011;4185;41.506;24.938;2023-04-06T13:36:00;17.20;;;11.67;;
8293;SDS011;4185;41.506;24.938;2023-04-06T13:38:27;19.73;;;11.80;;
8293;SDS011;4185;41.506;24.938;2023-04-06T13:40:54;22.07;;;14.00;;
8293;SDS011;4185;41.506;24.938;2023-04-06T13:43:21;31.57;;;19.33;;
8293;SDS011;4185;41.506;24.938;2023-04-06T13:45:51;21.03;;;13.47;;
8293;SDS011;4185;41.506;24.938;2023-04-06T13:48:20;20.30;;;12.87;;
8293;SDS011;4185;41.506;24.938;2023-04-06T13:50:48;17.47;;;12.43;;
8293;SDS011;4185;41.506;24.938;2023-04-06T13:53:15;20.10;;;13.60;;
8293;SDS011;4185;41.506;24.938;2023-04-06T13:55:42;19.07;;;11.07;;
8293;SDS011;4185;41.506;24.938;2023-04-06T13:58:09;19.80;;;13.57;;
8293;SDS011;4185;41.506;24.938;2023-04-06T14:00:36;23.87;;;16.53;;
8293;SDS011;4185;41.506;24.938;2023-04-06T14:03:03;23.80;;;15.13;;
8293;SDS011;4185;41.506;24.938;2023-04-06T14:05:30;14.50;;;10.53;;
8293;SDS011;4185;41.506;24.938;2023-04-06T14:07:59;26.87;;;16.07;;
8293;SDS011;4185;41.506;24.938;2023-04-06T14:10:26;28.10;;;16.23;;
8293;SDS011;4185;41.506;24.938;2023-04-06T14:12:53;15.93;;;10.47;;
8293;SDS011;4185;41.506;24.938;2023-04-06T14:15:19;18.77;;;11.67;;
8293;SDS011;4185;41.506;24.938;2023-04-06T14:17:47;19.17;;;11.97;;
8293;SDS011;4185;41.506;24.938;2023-04-06T14:20:13;10.17;;;7.73;;
8293;SDS011;4185;41.506;24.938;2023-04-06T14:22:40;26.03;;;14.90;;
8293;SDS011;4185;41.506;24.938;2023-04-06T14:25:09;21.43;;;14.83;;
8293;SDS011;4185;41.506;24.938;2023-04-06T14:27:36;20.63;;;14.53;;
8293;SDS011;4185;41.506;24.938;2023-04-06T14:30:03;28.53;;;16.10;;
8293;SDS011;4185;41.506;24.938;2023-04-06T14:32:30;23.47;;;15.40;;
8293;SDS011;4185;41.506;24.938;2023-04-06T14:34:57;21.57;;;14.20;;
8293;SDS011;4185;41.506;24.938;2023-04-06T14:37:24;22.20;;;14.10;;
8293;SDS011;4185;41.506;24.938;2023-04-06T14:39:51;23.77;;;14.27;;
8293;SDS011;4185;41.506;24.938;2023-04-06T14:42:19;20.37;;;13.07;;
8293;SDS011;4185;41.506;24.938;2023-04-06T14:44:46;19.57;;;12.77;;
8293;SDS011;4185;41.506;24.938;2023-04-06T14:47:13;16.27;;;12.57;;
8293;SDS011;4185;41.506;24.938;2023-04-06T14:49:45;17.07;;;11.53;;
8293;SDS011;4185;41.506;24.938;2023-04-06T14:52:12;17.70;;;11.73;;
8293;SDS011;4185;41.506;24.938;2023-04-06T14:54:38;14.13;;;9.47;;
8293;SDS011;4185;41.506;24.938;2023-04-06T14:57:05;11.33;;;9.43;;